Time;durP1;ratioP1;P1;durP2;ratioP2;P2;SDS_P1;SDS_P2;PMS_P1;PMS_P2;Temp;Humidity;BMP_temperature;BMP_pressure;BME280_temperature;BME280_humidity;BME280_pressure;Samples;Min_cycle;Max_cycle;Signal;HPM_P1;HPM_P2
2023/04/22 00:01:40;;;;;;;6.67;4.97;;;8.30;99.90;;;;;;5042120;28;20161;-77
2023/04/22 00:04:06;;;;;;;5.80;4.93;;;8.30;99.90;;;;;;5041132;28;20203;-77
2023/04/22 00:06:31;;;;;;;5.70;5.10;;;8.60;99.90;;;;;;5042788;28;20236;-77
2023/04/22 00:08:57;;;;;;;8.10;5.20;;;8.20;99.90;;;;;;5042097;28;20205;-77
2023/04/22 00:11:23;;;;;;;6.33;5.27;;;7.80;99.90;;;;;;5041653;28;20168;-77
2023/04/22 00:13:48;;;;;;;7.70;6.30;;;8.60;99.90;;;;;;5041606;28;20203;-77
2023/04/22 00:16:14;;;;;;;7.73;5.80;;;8.10;99.90;;;;;;5039889;28;20192;-77
2023/04/22 00:18:40;;;;;;;10.47;6.47;;;9.00;99.90;;;;;;5038504;28;20183;-76
2023/04/22 00:21:06;;;;;;;7.57;5.50;;;8.50;99.90;;;;;;5039813;28;20164;-77
2023/04/22 00:23:32;;;;;;;6.40;5.57;;;9.20;99.90;;;;;;5039374;28;20191;-77
2023/04/22 00:25:58;;;;;;;8.10;5.50;;;8.70;99.90;;;;;;5038837;28;20200;-77
2023/04/22 00:28:24;;;;;;;10.53;7.40;;;9.20;99.90;;;;;;5040065;28;20216;-77
2023/04/22 00:30:49;;;;;;;10.57;6.63;;;8.40;99.90;;;;;;5038259;28;20188;-77
2023/04/22 00:33:15;;;;;;;8.53;6.83;;;8.00;99.90;;;;;;5040012;28;20204;-77
2023/04/22 00:35:40;;;;;;;9.13;6.53;;;8.80;99.90;;;;;;5040609;28;20284;-77
2023/04/22 00:38:06;;;;;;;8.93;6.40;;;8.10;99.90;;;;;;5042177;28;20172;-76
2023/04/22 00:40:32;;;;;;;10.03;6.83;;;8.10;99.90;;;;;;5041604;28;20188;-77
2023/04/22 00:42:59;;;;;;;8.07;6.80;;;8.10;99.90;;;;;;5041670;28;20240;-77
2023/04/22 00:45:25;;;;;;;10.50;7.47;;;8.10;99.90;;;;;;5041588;28;20196;-77
2023/04/22 00:47:51;;;;;;;10.03;7.07;;;8.10;99.90;;;;;;5041948;28;20212;-77
2023/04/22 00:50:17;;;;;;;9.00;6.80;;;8.00;99.90;;;;;;5042221;28;20292;-77
2023/04/22 00:52:43;;;;;;;9.03;6.70;;;8.10;99.90;;;;;;5041813;28;20300;-77
2023/04/22 00:55:09;;;;;;;7.73;6.03;;;7.70;99.90;;;;;;5041840;28;20223;-77
2023/04/22 00:57:35;;;;;;;9.13;6.87;;;8.10;99.90;;;;;;5040359;28;20181;-76
2023/04/22 01:00:01;;;;;;;8.93;6.67;;;8.10;99.90;;;;;;5041143;28;20185;-77
2023/04/22 01:02:27;;;;;;;7.50;5.90;;;8.00;99.90;;;;;;5042480;28;20207;-76
2023/04/22 01:04:53;;;;;;;11.63;6.73;;;8.90;99.90;;;;;;5042357;28;20283;-77
2023/04/22 01:07:19;;;;;;;10.87;6.60;;;8.10;99.90;;;;;;5041176;28;20226;-77
2023/04/22 01:09:45;;;;;;;8.13;6.13;;;8.10;99.90;;;;;;5041750;28;20229;-76
2023/04/22 01:12:11;;;;;;;8.80;6.57;;;7.80;99.90;;;;;;5042086;28;20212;-79
2023/04/22 01:14:36;;;;;;;8.00;6.43;;;9.00;99.90;;;;;;5040889;28;20189;-76
2023/04/22 01:17:02;;;;;;;10.27;5.87;;;8.40;99.90;;;;;;5041118;28;20173;-77
2023/04/22 01:19:28;;;;;;;9.43;6.97;;;8.20;99.90;;;;;;5041335;28;20188;-76
2023/04/22 01:21:55;;;;;;;10.87;7.57;;;8.10;99.90;;;;;;5039695;28;20253;-77
2023/04/22 01:24:21;;;;;;;9.43;6.83;;;8.10;99.90;;;;;;5038812;28;20192;-77
2023/04/22 01:26:47;;;;;;;10.43;7.47;;;8.10;99.90;;;;;;5039337;28;20194;-77
2023/04/22 01:29:13;;;;;;;9.87;7.53;;;8.50;99.90;;;;;;5042113;28;20164;-77
2023/04/22 01:31:39;;;;;;;10.70;7.33;;;8.30;99.90;;;;;;5040496;28;20207;-77
2023/04/22 01:34:05;;;;;;;10.07;8.07;;;8.00;99.90;;;;;;5042193;28;20185;-77
2023/04/22 01:36:32;;;;;;;9.27;7.87;;;8.70;99.90;;;;;;5042335;28;20183;-77
2023/04/22 01:38:58;;;;;;;9.43;7.37;;;8.10;99.90;;;;;;5043380;28;20177;-77
2023/04/22 01:41:24;;;;;;;10.20;7.83;;;8.10;99.90;;;;;;5041097;28;20177;-77
2023/04/22 01:43:52;;;;;;;9.63;7.33;;;8.10;99.90;;;;;;5042952;28;20195;-76
2023/04/22 01:46:18;;;;;;;11.60;7.00;;;8.10;99.90;;;;;;5040168;28;20191;-77
2023/04/22 01:48:49;;;;;;;14.80;8.10;;;8.80;99.90;;;;;;5042459;28;20183;-76
2023/04/22 01:51:16;;;;;;;9.77;7.43;;;8.20;99.90;;;;;;5041910;28;20200;-77
2023/04/22 01:53:41;;;;;;;12.80;8.00;;;8.20;99.90;;;;;;5041262;28;20211;-76
2023/04/22 01:56:07;;;;;;;11.57;8.17;;;8.40;99.90;;;;;;5042059;28;20192;-77
2023/04/22 01:58:32;;;;;;;11.90;7.73;;;8.50;99.90;;;;;;5041173;28;20180;-77
2023/04/22 02:00:58;;;;;;;10.50;8.10;;;8.10;99.90;;;;;;5040353;28;20200;-77
2023/04/22 02:03:24;;;;;;;10.17;7.40;;;8.20;99.90;;;;;;5040067;28;20180;-77
2023/04/22 02:05:49;;;;;;;12.07;8.30;;;8.10;99.90;;;;;;5041062;28;20204;-77
2023/04/22 02:08:15;;;;;;;11.67;8.77;;;8.20;99.90;;;;;;5040274;28;20233;-77
2023/04/22 02:10:40;;;;;;;12.90;9.40;;;8.90;99.90;;;;;;5040336;28;20180;-77
2023/04/22 02:13:06;;;;;;;11.20;8.70;;;8.10;99.90;;;;;;5041715;28;20351;-77
2023/04/22 02:15:31;;;;;;;12.90;8.47;;;8.10;99.90;;;;;;5040547;28;20194;-77
2023/04/22 02:17:57;;;;;;;12.97;9.17;;;8.10;99.90;;;;;;5040804;28;20176;-77
2023/04/22 02:20:23;;;;;;;11.53;9.03;;;8.10;99.90;;;;;;5039939;28;20648;-76
2023/04/22 02:22:49;;;;;;;12.67;8.67;;;8.10;99.90;;;;;;5040777;28;20602;-77
2023/04/22 02:25:15;;;;;;;12.23;8.43;;;8.10;99.90;;;;;;5039496;28;20213;-77
2023/04/22 02:27:41;;;;;;;10.50;7.63;;;8.00;99.90;;;;;;5039509;28;20176;-77
2023/04/22 02:30:07;;;;;;;11.53;8.87;;;8.10;99.90;;;;;;5039122;28;20172;-77
2023/04/22 02:32:35;;;;;;;9.13;7.60;;;8.00;99.90;;;;;;5038909;28;20202;-77
2023/04/22 02:35:01;;;;;;;10.67;8.10;;;8.10;99.90;;;;;;5041540;28;20207;-77
2023/04/22 02:37:27;;;;;;;9.90;7.40;;;8.10;99.90;;;;;;5026022;28;20172;-77
2023/04/22 02:39:53;;;;;;;12.87;8.50;;;8.00;99.90;;;;;;5044384;28;20196;-77
2023/04/22 02:42:18;;;;;;;11.30;9.00;;;8.10;99.90;;;;;;5045062;28;20262;-77
2023/04/22 02:44:44;;;;;;;12.40;8.27;;;8.10;99.90;;;;;;5044490;28;20200;-77
2023/04/22 02:47:09;;;;;;;10.67;7.50;;;8.70;99.90;;;;;;5044544;28;20202;-77
2023/04/22 02:49:35;;;;;;;11.83;7.67;;;8.10;99.90;;;;;;5043005;28;20189;-77
2023/04/22 02:52:00;;;;;;;11.50;8.30;;;8.30;99.90;;;;;;5043733;28;20236;-76
2023/04/22 02:54:26;;;;;;;13.83;7.77;;;8.10;99.90;;;;;;5043700;28;20681;-77
2023/04/22 02:56:51;;;;;;;10.80;7.93;;;8.00;99.90;;;;;;5042269;28;20181;-77
2023/04/22 02:59:17;;;;;;;9.47;7.70;;;8.10;99.90;;;;;;5044037;28;20660;-76
2023/04/22 03:01:42;;;;;;;10.00;7.60;;;8.00;99.90;;;;;;5043514;28;20237;-77
2023/04/22 03:04:08;;;;;;;11.43;8.43;;;8.00;99.90;;;;;;5043439;28;20564;-77
2023/04/22 03:06:33;;;;;;;10.07;6.70;;;8.00;99.90;;;;;;5043448;28;20651;-77
2023/04/22 03:08:59;;;;;;;10.23;7.83;;;8.10;99.90;;;;;;5042818;28;20180;-76
2023/04/22 03:11:25;;;;;;;11.47;8.23;;;8.00;99.90;;;;;;5041522;28;20274;-76
2023/04/22 03:13:51;;;;;;;9.90;7.43;;;8.10;99.90;;;;;;5041486;28;20257;-76
2023/04/22 03:16:16;;;;;;;11.97;8.33;;;8.50;99.90;;;;;;5039798;28;20180;-77
2023/04/22 03:18:42;;;;;;;10.23;7.50;;;9.10;99.90;;;;;;5040255;28;20205;-77
2023/04/22 03:21:08;;;;;;;13.03;7.00;;;8.70;99.90;;;;;;5039924;28;20183;-76
2023/04/22 03:23:34;;;;;;;11.47;6.87;;;8.90;99.90;;;;;;5040612;28;20184;-77
2023/04/22 03:25:59;;;;;;;7.30;5.90;;;8.00;99.90;;;;;;5040950;28;20210;-76
2023/04/22 03:28:25;;;;;;;10.23;7.07;;;8.80;99.90;;;;;;5040555;28;20255;-79
2023/04/22 03:30:51;;;;;;;11.30;7.27;;;7.80;99.90;;;;;;5039661;28;20188;-76
2023/04/22 03:33:17;;;;;;;10.50;7.73;;;8.10;99.90;;;;;;5038807;28;20201;-77
2023/04/22 03:35:43;;;;;;;9.43;7.03;;;8.10;99.90;;;;;;5039976;28;20198;-77
2023/04/22 03:38:08;;;;;;;11.97;6.90;;;9.10;99.90;;;;;;5039292;28;20204;-77
2023/04/22 03:40:34;;;;;;;8.47;7.10;;;8.50;99.90;;;;;;5039461;28;20176;-77
2023/04/22 03:42:59;;;;;;;10.03;7.03;;;8.00;99.90;;;;;;5037673;28;20185;-77
2023/04/22 03:45:26;;;;;;;10.23;7.33;;;8.70;99.90;;;;;;5038590;28;20192;-76
2023/04/22 03:47:51;;;;;;;10.13;7.70;;;8.60;99.90;;;;;;5038708;28;20254;-77
2023/04/22 03:50:17;;;;;;;10.63;7.33;;;8.00;99.90;;;;;;5038418;28;20184;-77
2023/04/22 03:52:42;;;;;;;9.73;7.43;;;8.00;99.90;;;;;;5037260;28;20204;-77
2023/04/22 03:55:08;;;;;;;8.90;7.30;;;8.00;99.90;;;;;;5038287;28;20327;-76
2023/04/22 03:57:35;;;;;;;9.97;6.93;;;8.00;99.90;;;;;;5036369;28;20187;-77
2023/04/22 04:00:00;;;;;;;11.43;7.60;;;8.00;99.90;;;;;;5039094;28;20165;-77
2023/04/22 04:02:26;;;;;;;8.40;7.00;;;8.00;99.90;;;;;;5039147;28;20245;-77
2023/04/22 04:04:51;;;;;;;9.50;6.97;;;8.80;99.90;;;;;;5039455;28;20203;-77
2023/04/22 04:07:17;;;;;;;10.83;6.57;;;8.10;99.90;;;;;;5038863;28;20200;-77
2023/04/22 04:09:43;;;;;;;10.50;7.67;;;8.00;99.90;;;;;;5041578;28;20172;-77
2023/04/22 04:12:08;;;;;;;8.70;6.80;;;8.20;99.90;;;;;;5042415;28;20215;-77
2023/04/22 04:14:34;;;;;;;10.83;6.77;;;8.50;99.90;;;;;;5042228;28;20261;-77
2023/04/22 04:16:59;;;;;;;7.87;6.20;;;8.20;99.90;;;;;;5042025;28;20504;-77
2023/04/22 04:19:25;;;;;;;7.97;6.17;;;9.10;99.90;;;;;;5042762;28;20172;-76
2023/04/22 04:21:50;;;;;;;9.50;6.60;;;9.00;99.90;;;;;;5040908;28;20180;-76
2023/04/22 04:24:16;;;;;;;7.87;6.00;;;8.00;99.90;;;;;;5040199;28;20287;-77
2023/04/22 04:26:41;;;;;;;7.70;5.60;;;8.40;99.90;;;;;;5041780;28;20172;-77
2023/04/22 04:29:07;;;;;;;7.10;5.80;;;8.10;99.90;;;;;;5042072;28;20536;-77
2023/04/22 04:31:34;;;;;;;8.17;5.60;;;8.90;99.90;;;;;;5041156;28;20608;-77
2023/04/22 04:33:59;;;;;;;9.10;5.73;;;9.10;99.90;;;;;;5040287;28;20196;-77
2023/04/22 04:36:26;;;;;;;7.70;5.50;;;8.80;99.90;;;;;;5039398;28;20168;-77
2023/04/22 04:38:51;;;;;;;10.13;6.03;;;8.10;99.90;;;;;;5038053;28;20168;-77
2023/04/22 04:41:20;;;;;;;8.30;6.20;;;8.10;99.90;;;;;;5037835;28;20237;-77
2023/04/22 04:43:46;;;;;;;7.87;5.87;;;8.90;99.90;;;;;;5037586;28;20188;-76
2023/04/22 04:46:12;;;;;;;8.80;5.27;;;8.50;99.90;;;;;;5037496;28;20188;-77
2023/04/22 04:48:41;;;;;;;8.50;4.83;;;8.10;99.90;;;;;;5038485;28;20496;-76
2023/04/22 04:51:07;;;;;;;6.67;5.30;;;8.70;99.90;;;;;;5036367;28;20244;-76
2023/04/22 04:53:32;;;;;;;6.13;5.07;;;8.10;99.90;;;;;;5038439;28;20204;-77
2023/04/22 04:55:58;;;;;;;7.57;6.07;;;8.10;99.90;;;;;;5036239;28;20192;-75
2023/04/22 04:58:24;;;;;;;8.73;5.80;;;8.10;99.90;;;;;;5036355;28;20211;-77
2023/04/22 05:00:50;;;;;;;6.93;5.00;;;8.10;99.90;;;;;;5037156;28;20172;-77
2023/04/22 05:03:15;;;;;;;6.70;5.37;;;8.40;99.90;;;;;;5038660;28;20770;-76
2023/04/22 05:05:41;;;;;;;6.90;4.87;;;8.20;99.90;;;;;;5038360;28;20283;-77
2023/04/22 05:08:06;;;;;;;6.87;5.77;;;8.20;99.90;;;;;;5038438;28;20221;-76
2023/04/22 05:10:32;;;;;;;7.77;5.90;;;8.30;99.90;;;;;;5037876;28;20176;-76
2023/04/22 05:12:58;;;;;;;10.10;5.70;;;8.20;99.90;;;;;;5037574;28;20207;-77
2023/04/22 05:15:23;;;;;;;7.43;5.57;;;8.30;99.90;;;;;;5038447;28;20200;-76
2023/04/22 05:17:49;;;;;;;8.70;5.43;;;8.30;99.90;;;;;;5039092;28;20202;-77
2023/04/22 05:20:14;;;;;;;5.20;4.70;;;8.30;99.90;;;;;;5038393;28;20191;-77
2023/04/22 05:22:44;;;;;;;6.33;5.07;;;8.70;99.90;;;;;;5038956;28;20259;-77
2023/04/22 05:25:10;;;;;;;9.00;5.40;;;8.40;99.90;;;;;;5038396;28;20264;-77
2023/04/22 05:27:35;;;;;;;6.70;4.90;;;8.60;99.90;;;;;;5039657;28;20237;-76
2023/04/22 05:30:01;;;;;;;6.40;5.50;;;8.50;99.90;;;;;;5037849;28;20184;-77
2023/04/22 05:32:27;;;;;;;6.40;5.70;;;8.50;99.90;;;;;;5041846;28;20204;-78
2023/04/22 05:34:52;;;;;;;7.57;5.43;;;8.60;99.90;;;;;;5044133;28;20200;-77
2023/04/22 05:37:19;;;;;;;7.00;5.50;;;8.60;99.90;;;;;;5043899;28;20257;-77
2023/04/22 05:39:45;;;;;;;6.60;5.40;;;7.90;99.90;;;;;;5043518;28;20183;-78
2023/04/22 05:42:10;;;;;;;6.63;5.10;;;8.70;99.90;;;;;;5042533;28;20176;-77
2023/04/22 05:44:36;;;;;;;6.57;5.63;;;8.70;99.90;;;;;;5046740;28;20261;-77
2023/04/22 05:47:02;;;;;;;7.33;5.20;;;8.70;99.90;;;;;;5042046;28;20191;-77
2023/04/22 05:49:27;;;;;;;8.30;5.03;;;9.00;99.90;;;;;;5041663;28;20174;-77
2023/04/22 05:51:53;;;;;;;5.40;4.70;;;10.30;99.90;;;;;;5038009;28;20180;-77
2023/04/22 05:54:18;;;;;;;5.77;4.77;;;8.90;99.90;;;;;;5040345;28;20226;-77
2023/04/22 05:56:44;;;;;;;6.50;4.77;;;9.00;99.90;;;;;;5039563;28;20188;-79
2023/04/22 05:59:10;;;;;;;6.50;4.67;;;9.10;99.90;;;;;;5040393;28;20180;-77
2023/04/22 06:01:36;;;;;;;4.83;4.30;;;9.10;99.90;;;;;;5038682;28;20184;-78
2023/04/22 06:04:03;;;;;;;6.57;4.73;;;9.20;99.90;;;;;;5038909;28;20181;-79
2023/04/22 06:06:30;;;;;;;6.07;4.10;;;9.20;99.90;;;;;;5040069;28;20184;-79
2023/04/22 06:08:56;;;;;;;4.53;3.40;;;9.40;99.90;;;;;;5041863;28;20644;-79
2023/04/22 06:11:21;;;;;;;4.93;3.40;;;9.40;99.90;;;;;;5039748;28;20180;-79
2023/04/22 06:13:47;;;;;;;4.60;4.10;;;9.90;99.90;;;;;;5038429;28;20207;-79
2023/04/22 06:16:12;;;;;;;4.67;3.80;;;9.60;99.90;;;;;;5038078;28;20202;-79
2023/04/22 06:18:38;;;;;;;4.93;4.13;;;9.70;99.90;;;;;;5039339;28;20270;-79
2023/04/22 06:21:03;;;;;;;4.70;3.50;;;9.80;99.90;;;;;;5039578;28;20161;-79
2023/04/22 06:23:29;;;;;;;3.40;2.97;;;9.10;99.90;;;;;;5038222;28;20176;-79
2023/04/22 06:25:55;;;;;;;5.30;3.60;;;9.90;99.90;;;;;;5038577;28;20267;-79
2023/04/22 06:28:20;;;;;;;5.30;3.47;;;9.90;99.90;;;;;;5038143;28;20184;-78
2023/04/22 06:30:46;;;;;;;3.90;3.00;;;10.00;99.90;;;;;;5038987;28;20173;-79
2023/04/22 06:33:11;;;;;;;5.87;3.13;;;10.10;99.90;;;;;;5040157;28;20219;-79
2023/04/22 06:35:37;;;;;;;3.77;3.23;;;10.20;99.90;;;;;;5037580;28;20196;-79
2023/04/22 06:38:02;;;;;;;5.17;2.70;;;10.30;99.90;;;;;;5039788;28;20200;-79
2023/04/22 06:40:28;;;;;;;3.97;3.47;;;10.40;99.90;;;;;;5040737;28;20177;-79
2023/04/22 06:42:53;;;;;;;3.33;3.03;;;10.50;99.90;;;;;;5039648;28;20267;-79
2023/04/22 06:45:19;;;;;;;6.27;3.23;;;10.60;99.90;;;;;;5039828;28;20306;-78
2023/04/22 06:47:45;;;;;;;3.10;2.80;;;10.70;99.90;;;;;;5036386;28;20511;-78
2023/04/22 06:50:10;;;;;;;4.47;3.50;;;10.80;99.90;;;;;;5037877;28;20176;-78
2023/04/22 06:52:36;;;;;;;3.83;3.10;;;10.90;99.90;;;;;;5036917;28;20232;-78
2023/04/22 06:55:02;;;;;;;4.70;2.70;;;11.00;99.90;;;;;;5038622;28;20657;-78
2023/04/22 06:57:28;;;;;;;2.67;2.47;;;11.10;99.90;;;;;;5036933;28;20173;-79
2023/04/22 06:59:54;;;;;;;3.77;2.33;;;11.20;99.90;;;;;;5037336;28;20172;-78
2023/04/22 07:02:20;;;;;;;3.17;2.10;;;11.40;99.90;;;;;;5039590;28;20181;-78
2023/04/22 07:04:46;;;;;;;2.57;2.37;;;11.50;99.90;;;;;;5036084;28;20204;-78
2023/04/22 07:07:12;;;;;;;2.23;2.03;;;11.60;99.90;;;;;;5037106;28;20210;-78
2023/04/22 07:09:38;;;;;;;5.33;2.30;;;11.60;99.90;;;;;;5036318;28;20209;-79
2023/04/22 07:12:04;;;;;;;4.60;1.97;;;11.80;99.90;;;;;;5038587;28;20200;-78
2023/04/22 07:14:30;;;;;;;2.87;2.10;;;11.90;99.90;;;;;;5035794;28;20343;-79
2023/04/22 07:16:56;;;;;;;8.83;2.83;;;12.50;99.90;;;;;;5037855;28;20187;-78
2023/04/22 07:19:21;;;;;;;5.87;2.20;;;12.10;99.90;;;;;;5037857;28;20513;-77
2023/04/22 07:21:47;;;;;;;2.17;1.80;;;12.30;99.90;;;;;;5041610;28;20590;-80
2023/04/22 07:24:12;;;;;;;2.80;2.10;;;12.40;99.90;;;;;;5042169;28;20227;-79
2023/04/22 07:26:39;;;;;;;1.80;1.70;;;12.50;99.90;;;;;;5041243;28;20644;-79
2023/04/22 07:29:06;;;;;;;7.73;2.30;;;12.60;99.90;;;;;;5042089;28;20181;-79
2023/04/22 07:31:32;;;;;;;2.47;1.73;;;12.70;99.90;;;;;;5041565;28;20180;-80
2023/04/22 07:33:58;;;;;;;1.90;1.50;;;12.90;99.90;;;;;;5043461;28;20264;-80
2023/04/22 07:36:23;;;;;;;3.17;1.87;;;12.90;99.90;;;;;;5044082;28;20181;-80
2023/04/22 07:38:49;;;;;;;5.13;1.80;;;13.00;99.90;;;;;;5042835;28;20263;-80
2023/04/22 07:41:14;;;;;;;1.40;1.20;;;13.10;99.90;;;;;;5042553;28;20184;-80
2023/04/22 07:43:40;;;;;;;2.63;1.70;;;13.20;99.90;;;;;;5043470;28;20222;-80
2023/04/22 07:46:06;;;;;;;2.07;1.70;;;13.30;99.90;;;;;;5043854;28;20211;-80
2023/04/22 07:48:31;;;;;;;1.77;1.33;;;13.40;99.90;;;;;;5044559;28;20184;-81
2023/04/22 07:50:57;;;;;;;3.73;1.67;;;13.50;99.90;;;;;;5043176;28;20179;-80
2023/04/22 07:53:22;;;;;;;3.00;1.73;;;13.70;99.90;;;;;;5043101;28;20200;-80
2023/04/22 07:55:48;;;;;;;1.97;1.40;;;13.80;99.90;;;;;;5039687;28;20616;-80
2023/04/22 07:58:14;;;;;;;2.53;1.83;;;13.80;99.90;;;;;;5037547;28;20179;-79
2023/04/22 08:00:40;;;;;;;2.03;1.60;;;13.90;99.90;;;;;;5037079;28;20176;-80
2023/04/22 08:03:05;;;;;;;4.93;1.80;;;14.10;99.90;;;;;;5041133;28;20182;-79
2023/04/22 08:05:31;;;;;;;2.07;1.87;;;14.10;99.90;;;;;;5038753;28;20687;-79
2023/04/22 08:07:56;;;;;;;6.43;1.70;;;14.20;1.00;;;;;;5037677;28;20244;-79
2023/04/22 08:10:22;;;;;;;1.50;1.40;;;14.30;1.00;;;;;;5037005;28;20624;-79
2023/04/22 08:12:48;;;;;;;3.10;1.67;;;14.30;1.00;;;;;;5039203;28;20215;-80
2023/04/22 08:15:13;;;;;;;2.10;1.90;;;14.60;1.00;;;;;;5040026;28;20249;-79
2023/04/22 08:17:39;;;;;;;2.57;1.70;;;14.60;1.00;;;;;;5036870;28;20173;-79
2023/04/22 08:20:05;;;;;;;4.40;1.83;;;14.70;1.00;;;;;;5036919;28;20181;-78
2023/04/22 08:22:32;;;;;;;2.90;1.37;;;14.70;1.00;;;;;;5036063;28;20260;-78
2023/04/22 08:24:58;;;;;;;3.50;1.70;;;14.80;1.00;;;;;;5034662;28;20687;-79
2023/04/22 08:27:24;;;;;;;2.73;1.70;;;14.90;1.00;;;;;;5037340;28;20172;-79
2023/04/22 08:29:49;;;;;;;4.17;1.80;;;14.90;1.00;;;;;;5037021;28;20177;-79
2023/04/22 08:32:15;;;;;;;2.77;1.73;;;15.00;6.60;;;;;;5035773;28;20231;-78
2023/04/22 08:34:41;;;;;;;1.97;1.57;;;15.20;99.90;;;;;;5034727;28;20220;-79
2023/04/22 08:37:07;;;;;;;2.87;1.30;;;15.30;99.90;;;;;;5037402;28;20180;-79
2023/04/22 08:39:32;;;;;;;1.47;1.37;;;15.40;99.90;;;;;;5039218;28;20647;-79
2023/04/22 08:41:58;;;;;;;1.90;1.73;;;15.50;99.90;;;;;;5039528;28;20168;-78
2023/04/22 08:44:25;;;;;;;3.37;1.80;;;15.50;99.90;;;;;;5039778;27;20241;-79
2023/04/22 08:46:50;;;;;;;2.30;2.03;;;15.70;99.90;;;;;;5039052;28;20548;-78
2023/04/22 08:49:20;;;;;;;3.43;1.57;;;15.70;99.90;;;;;;5042121;28;20172;-79
2023/04/22 08:51:47;;;;;;;3.90;1.80;;;15.90;99.90;;;;;;5038425;28;20184;-79
2023/04/22 08:54:12;;;;;;;1.90;1.70;;;15.80;99.90;;;;;;5037926;28;20583;-79
2023/04/22 08:56:43;;;;;;;1.80;1.53;;;15.90;99.90;;;;;;5036528;28;20173;-79
2023/04/22 08:59:12;;;;;;;4.30;2.00;;;15.90;99.90;;;;;;5037351;28;20173;-79
2023/04/22 09:01:40;;;;;;;2.10;1.70;;;16.00;99.90;;;;;;5038410;28;20554;-79
2023/04/22 09:04:07;;;;;;;4.80;1.90;;;16.10;99.90;;;;;;5038399;28;20184;-79
2023/04/22 09:06:32;;;;;;;3.47;1.57;;;16.10;99.90;;;;;;5038790;28;20187;-80
2023/04/22 09:09:00;;;;;;;3.27;1.63;;;16.20;99.90;;;;;;5039390;28;20264;-79
2023/04/22 09:11:26;;;;;;;2.67;1.73;;;16.30;99.90;;;;;;5037555;28;20251;-78
2023/04/22 09:13:53;;;;;;;2.50;1.70;;;16.40;99.90;;;;;;5039718;28;20207;-80
2023/04/22 09:16:19;;;;;;;1.90;1.67;;;16.50;99.90;;;;;;5039089;28;20543;-79
2023/04/22 09:18:44;;;;;;;2.47;1.67;;;16.50;99.90;;;;;;5039687;28;20178;-81
2023/04/22 09:21:12;;;;;;;2.90;2.07;;;16.60;99.90;;;;;;5037741;28;20506;-80
2023/04/22 09:23:51;;;;;;;1.63;1.40;;;16.70;99.90;;;;;;5040602;28;20215;-80
2023/04/22 09:26:24;;;;;;;5.77;2.07;;;16.80;99.90;;;;;;5038923;28;20213;-79
2023/04/22 09:28:55;;;;;;;2.40;1.67;;;16.80;99.90;;;;;;5041693;28;20547;-80
2023/04/22 09:31:23;;;;;;;3.20;1.83;;;16.90;99.90;;;;;;5041684;28;20157;-83
2023/04/22 09:33:49;;;;;;;2.03;1.73;;;17.10;99.90;;;;;;5038485;28;20206;-79
2023/04/22 09:36:15;;;;;;;3.63;1.77;;;17.20;99.90;;;;;;5038255;28;20191;-79
2023/04/22 09:38:51;;;;;;;3.20;1.80;;;17.30;99.90;;;;;;5039559;28;20165;-78
2023/04/22 09:41:16;;;;;;;2.20;1.50;;;17.40;99.90;;;;;;5038868;28;20182;-78
2023/04/22 09:43:42;;;;;;;3.07;1.73;;;17.50;99.90;;;;;;5037773;28;20180;-79
2023/04/22 09:46:09;;;;;;;3.00;1.57;;;17.50;99.90;;;;;;5037368;28;20192;-78
2023/04/22 09:48:41;;;;;;;3.20;1.67;;;17.70;99.90;;;;;;5041033;28;20171;-78
2023/04/22 09:51:14;;;;;;;2.60;1.80;;;17.60;99.90;;;;;;5039337;28;20221;-79
2023/04/22 09:53:40;;;;;;;1.70;1.60;;;17.70;99.90;;;;;;5039103;28;20199;-79
2023/04/22 09:56:06;;;;;;;2.67;1.70;;;17.70;99.90;;;;;;5039588;28;20200;-79
2023/04/22 09:58:38;;;;;;;2.00;1.70;;;17.70;99.90;;;;;;5038844;28;20663;-80
2023/04/22 10:01:04;;;;;;;2.13;1.60;;;17.80;99.90;;;;;;5039954;28;20161;-79
2023/04/22 10:03:30;;;;;;;1.70;1.50;;;17.80;99.90;;;;;;5038106;28;20179;-78
2023/04/22 10:05:57;;;;;;;3.70;1.87;;;17.80;99.90;;;;;;5038835;28;20188;-80
2023/04/22 10:08:22;;;;;;;4.13;2.00;;;17.90;99.90;;;;;;5038921;28;20217;-79
2023/04/22 10:10:48;;;;;;;2.10;1.63;;;17.90;99.90;;;;;;5035492;28;20185;-79
2023/04/22 10:13:13;;;;;;;1.90;1.70;;;17.90;99.90;;;;;;5039168;28;20210;-79
2023/04/22 10:15:48;;;;;;;2.37;1.70;;;18.00;99.90;;;;;;5039612;28;20677;-79
2023/04/22 10:18:18;;;;;;;2.63;1.30;;;18.00;99.90;;;;;;5039321;28;20167;-78
2023/04/22 10:20:45;;;;;;;4.33;1.80;;;18.10;99.90;;;;;;5038545;28;20164;-79
2023/04/22 10:23:18;;;;;;;4.23;1.67;;;18.30;99.90;;;;;;5038733;28;20593;-79
2023/04/22 10:25:48;;;;;;;6.40;2.10;;;18.40;99.90;;;;;;5039483;28;20248;-79
2023/04/22 10:28:15;;;;;;;2.10;1.70;;;18.50;99.90;;;;;;5039010;28;20218;-78
2023/04/22 10:30:41;;;;;;;2.80;1.77;;;18.60;99.90;;;;;;5039517;28;20380;-79
2023/04/22 10:33:33;;;;;;;2.67;1.97;;;18.50;99.90;;;;;;5039862;28;20244;-79
2023/04/22 10:36:14;;;;;;;2.57;1.73;;;18.70;99.90;;;;;;5037656;28;20567;-79
2023/04/22 10:38:54;;;;;;;2.10;1.90;;;18.80;99.90;;;;;;5039861;28;20153;-79
2023/04/22 10:41:31;;;;;;;3.00;1.57;;;18.90;99.90;;;;;;5033557;28;20165;-79
2023/04/22 10:43:58;;;;;;;2.93;1.67;;;18.90;99.90;;;;;;5034941;28;20168;-78
2023/04/22 10:46:50;;;;;;;3.43;1.87;;;19.10;99.90;;;;;;5034462;28;20644;-79
2023/04/22 10:49:24;;;;;;;2.13;1.60;;;19.10;99.90;;;;;;5037543;28;20180;-78
2023/04/22 10:51:58;;;;;;;1.97;1.70;;;19.20;99.90;;;;;;5032590;28;20164;-77
2023/04/22 10:54:26;;;;;;;3.67;1.93;;;19.20;99.90;;;;;;5029860;28;20211;-79
2023/04/22 10:57:05;;;;;;;3.97;1.67;;;19.20;99.90;;;;;;5035257;28;20256;-79
2023/04/22 10:59:34;;;;;;;3.17;1.77;;;19.40;99.90;;;;;;5033846;28;20172;-79
2023/04/22 11:02:04;;;;;;;2.50;1.70;;;19.50;99.90;;;;;;5034110;28;20233;-77
2023/04/22 11:04:30;;;;;;;2.10;1.53;;;19.60;99.90;;;;;;5033186;28;20740;-77
2023/04/22 11:07:34;;;;;;;2.67;1.70;;;19.60;99.90;;;;;;5032980;28;20180;-77
2023/04/22 11:10:06;;;;;;;4.73;1.63;;;19.70;98.10;;;;;;5031961;28;20243;-77
2023/04/22 11:12:34;;;;;;;3.13;1.60;;;19.60;99.90;;;;;;5032996;28;20774;-77
2023/04/22 11:15:23;;;;;;;5.23;1.80;;;19.60;54.60;;;;;;5031790;28;20220;-77
2023/04/22 11:17:53;;;;;;;2.93;1.60;;;19.70;57.50;;;;;;5033466;28;20155;-77
2023/04/22 11:20:19;;;;;;;3.20;1.67;;;19.70;82.40;;;;;;5032751;28;20177;-77
2023/04/22 11:22:52;;;;;;;2.57;1.50;;;19.80;99.30;;;;;;5033259;28;20225;-79
2023/04/22 11:25:18;;;;;;;4.90;1.67;;;20.00;93.80;;;;;;5033145;28;20220;-77
2023/04/22 11:27:45;;;;;;;3.33;1.60;;;20.10;48.30;;;;;;5031553;28;20679;-77
2023/04/22 11:30:19;;;;;;;2.23;1.60;;;20.10;43.60;;;;;;5031329;28;20211;-77
2023/04/22 11:32:53;;;;;;;1.73;1.53;;;20.10;14.70;;;;;;5031024;28;20200;-77
2023/04/22 11:35:24;;;;;;;4.87;1.83;;;20.00;51.60;;;;;;5032233;28;20223;-77
2023/04/22 11:37:55;;;;;;;3.53;1.57;;;19.90;57.10;;;;;;5031510;28;20627;-77
2023/04/22 11:40:24;;;;;;;3.17;1.73;;;19.90;63.40;;;;;;5031266;28;20548;-77
2023/04/22 11:42:50;;;;;;;3.23;1.63;;;19.90;85.90;;;;;;5031696;28;20188;-77
2023/04/22 11:45:16;;;;;;;2.20;1.50;;;19.80;96.70;;;;;;5033470;28;20249;-77
2023/04/22 11:47:44;;;;;;;2.10;1.87;;;19.80;99.90;;;;;;5033939;28;20531;-77
2023/04/22 11:50:12;;;;;;;3.27;1.60;;;19.80;99.90;;;;;;5033860;28;20225;-78
2023/04/22 11:52:54;;;;;;;2.77;1.90;;;19.80;99.90;;;;;;5033432;28;20196;-77
2023/04/22 11:55:31;;;;;;;4.30;2.00;;;19.80;99.80;;;;;;5032562;28;20192;-78
2023/04/22 11:58:00;;;;;;;3.07;1.93;;;19.80;79.40;;;;;;5032294;28;20149;-77
2023/04/22 12:00:31;;;;;;;3.53;2.07;;;19.80;79.70;;;;;;5032894;28;20252;-77
2023/04/22 12:03:11;;;;;;;3.00;1.73;;;19.90;77.20;;;;;;5032415;28;20193;-78
2023/04/22 12:05:41;;;;;;;4.70;1.67;;;19.90;69.70;;;;;;5032352;28;20288;-77
2023/04/22 12:08:12;;;;;;;3.93;1.80;;;19.90;28.70;;;;;;5032323;28;20678;-77
2023/04/22 12:10:53;;;;;;;2.57;1.80;;;19.90;37.20;;;;;;5034290;28;20157;-77
2023/04/22 12:13:24;;;;;;;4.77;1.80;;;19.90;55.80;;;;;;5034634;28;20208;-78
2023/04/22 12:15:58;;;;;;;2.43;2.07;;;19.90;38.90;;;;;;5031550;28;20683;-77
2023/04/22 12:18:32;;;;;;;4.23;1.73;;;19.90;67.60;;;;;;5031770;28;20160;-77
2023/04/22 12:21:09;;;;;;;3.40;1.40;;;20.10;95.00;;;;;;5032608;28;20675;-77
2023/04/22 12:23:45;;;;;;;5.40;1.60;;;20.30;85.80;;;;;;5032587;28;20175;-77
2023/04/22 12:26:12;;;;;;;1.80;1.30;;;20.40;46.60;;;;;;5032286;28;20202;-76
2023/04/22 12:28:38;;;;;;;3.60;1.80;;;20.40;21.50;;;;;;5031951;28;20201;-75
2023/04/22 12:31:04;;;;;;;4.37;2.00;;;20.50;36.90;;;;;;5031801;28;20225;-75
2023/04/22 12:33:30;;;;;;;2.33;1.80;;;20.70;44.00;;;;;;5031909;28;20196;-77
2023/04/22 12:35:56;;;;;;;2.40;1.60;;;20.60;9.30;;;;;;5031897;28;20664;-76
2023/04/22 12:38:21;;;;;;;2.40;1.70;;;20.60;9.60;;;;;;5031924;28;20187;-76
2023/04/22 12:40:47;;;;;;;4.60;1.80;;;20.70;8.20;;;;;;5030335;28;20520;-76
2023/04/22 12:43:12;;;;;;;3.87;1.87;;;20.70;7.60;;;;;;5030315;28;20192;-76
2023/04/22 12:45:38;;;;;;;3.07;2.07;;;20.70;7.10;;;;;;5031488;28;20208;-76
2023/04/22 12:48:04;;;;;;;4.00;1.97;;;20.70;7.60;;;;;;5030152;28;20176;-76
2023/04/22 12:50:29;;;;;;;3.33;1.70;;;20.80;24.50;;;;;;5031502;28;20218;-76